Aviation Digital Data Service (ADDS)

Output produced by METARs form (1450 UTC 25 January 2020)
found at http://www.aviationweather.gov/metar/data/
 
METAR text: RJTT 251430Z 04010KT 9999 VCSH FEW020 BKN050 09/01 Q1027 NOSIG RMK 1CU020 7SC050 A3035
Conditions at: RJTT (TOKYO INTL AIRPO, JP) observed 1430 UTC 25 January 2020
Temperature: 9.0°C (48°F)
Dewpoint: 1.0°C (34°F) [RH = 57%]
Pressure (altimeter): 30.32 inches Hg (1027.0 mb)
Winds: from the NE (40 degrees) at 12 MPH (10 knots; 5.1 m/s)
Visibility: 6 or more miles (10+ km)
Ceiling: 5000 feet AGL
Clouds: few clouds at 2000 feet AGL
broken clouds at 5000 feet AGL
Weather: VCSH  (showers in vicinity)

METAR text: RJTT 251400Z 06012KT 9999 BKN050 09/01 Q1027 BECMG 04008KT RMK 7SC050 A3034
Conditions at: RJTT (TOKYO INTL AIRPO, JP) observed 1400 UTC 25 January 2020
Temperature: 9.0°C (48°F)
Dewpoint: 1.0°C (34°F) [RH = 57%]
Pressure (altimeter): 30.32 inches Hg (1027.0 mb)
Winds: from the ENE (60 degrees) at 14 MPH (12 knots; 6.2 m/s)
Visibility: 6 or more miles (10+ km)
Ceiling: 5000 feet AGL
Clouds: broken clouds at 5000 feet AGL
Weather: no significant weather observed at this time

METAR text: RJTT 251330Z 05011KT 9999 BKN050 09/02 Q1027 NOSIG RMK 7SC050 A3034
Conditions at: RJTT (TOKYO INTL AIRPO, JP) observed 1330 UTC 25 January 2020
Temperature: 9.0°C (48°F)
Dewpoint: 2.0°C (36°F) [RH = 61%]
Pressure (altimeter): 30.32 inches Hg (1027.0 mb)
Winds: from the NE (50 degrees) at 13 MPH (11 knots; 5.7 m/s)
Visibility: 6 or more miles (10+ km)
Ceiling: 5000 feet AGL
Clouds: broken clouds at 5000 feet AGL
Weather: no significant weather observed at this time

METAR text: RJTT 251300Z 05011KT 9999 BKN050 09/01 Q1027 NOSIG RMK 7SC050 A3035
Conditions at: RJTT (TOKYO INTL AIRPO, JP) observed 1300 UTC 25 January 2020
Temperature: 9.0°C (48°F)
Dewpoint: 1.0°C (34°F) [RH = 57%]
Pressure (altimeter): 30.32 inches Hg (1027.0 mb)
Winds: from the NE (50 degrees) at 13 MPH (11 knots; 5.7 m/s)
Visibility: 6 or more miles (10+ km)
Ceiling: 5000 feet AGL
Clouds: broken clouds at 5000 feet AGL
Weather: no significant weather observed at this time

METAR text: RJTT 251230Z 05010KT 9999 BKN050 09/02 Q1028 NOSIG RMK 7SC050 A3036
Conditions at: RJTT (TOKYO INTL AIRPO, JP) observed 1230 UTC 25 January 2020
Temperature: 9.0°C (48°F)
Dewpoint: 2.0°C (36°F) [RH = 61%]
Pressure (altimeter): 30.35 inches Hg (1028.0 mb)
Winds: from the NE (50 degrees) at 12 MPH (10 knots; 5.1 m/s)
Visibility: 6 or more miles (10+ km)
Ceiling: 5000 feet AGL
Clouds: broken clouds at 5000 feet AGL
Weather: no significant weather observed at this time

METAR text: RJTT 251200Z 06011KT 9999 FEW030 BKN050 09/02 Q1028 NOSIG RMK 1CU030 7SC050 A3036
Conditions at: RJTT (TOKYO INTL AIRPO, JP) observed 1200 UTC 25 January 2020
Temperature: 9.0°C (48°F)
Dewpoint: 2.0°C (36°F) [RH = 61%]
Pressure (altimeter): 30.35 inches Hg (1028.0 mb)
Winds: from the ENE (60 degrees) at 13 MPH (11 knots; 5.7 m/s)
Visibility: 6 or more miles (10+ km)
Ceiling: 5000 feet AGL
Clouds: few clouds at 3000 feet AGL
broken clouds at 5000 feet AGL
Weather: no significant weather observed at this time

METAR text: RJTT 251130Z 07010KT 9999 FEW030 BKN050 09/02 Q1028 NOSIG RMK 1CU030 7SC050 A3036
Conditions at: RJTT (TOKYO INTL AIRPO, JP) observed 1130 UTC 25 January 2020
Temperature: 9.0°C (48°F)
Dewpoint: 2.0°C (36°F) [RH = 61%]
Pressure (altimeter): 30.35 inches Hg (1028.0 mb)
Winds: from the ENE (70 degrees) at 12 MPH (10 knots; 5.1 m/s)
Visibility: 6 or more miles (10+ km)
Ceiling: 5000 feet AGL
Clouds: few clouds at 3000 feet AGL
broken clouds at 5000 feet AGL
Weather: no significant weather observed at this time

METAR text: RJTT 251100Z 07010KT 9999 FEW030 BKN050 09/02 Q1028 NOSIG RMK 1CU030 7SC050 A3036
Conditions at: RJTT (TOKYO INTL AIRPO, JP) observed 1100 UTC 25 January 2020
Temperature: 9.0°C (48°F)
Dewpoint: 2.0°C (36°F) [RH = 61%]
Pressure (altimeter): 30.35 inches Hg (1028.0 mb)
Winds: from the ENE (70 degrees) at 12 MPH (10 knots; 5.1 m/s)
Visibility: 6 or more miles (10+ km)
Ceiling: 5000 feet AGL
Clouds: few clouds at 3000 feet AGL
broken clouds at 5000 feet AGL
Weather: no significant weather observed at this time

METAR text: RJTT 251030Z 08010KT 9999 FEW030 BKN050 09/03 Q1028 NOSIG RMK 1CU030 7SC050 A3036
Conditions at: RJTT (TOKYO INTL AIRPO, JP) observed 1030 UTC 25 January 2020
Temperature: 9.0°C (48°F)
Dewpoint: 3.0°C (37°F) [RH = 66%]
Pressure (altimeter): 30.35 inches Hg (1028.0 mb)
Winds: from the E (80 degrees) at 12 MPH (10 knots; 5.1 m/s)
Visibility: 6 or more miles (10+ km)
Ceiling: 5000 feet AGL
Clouds: few clouds at 3000 feet AGL
broken clouds at 5000 feet AGL
Weather: no significant weather observed at this time

METAR text: RJTT 251000Z 08010KT 9999 FEW025 BKN050 09/03 Q1028 NOSIG RMK 1CU025 7SC050 A3036
Conditions at: RJTT (TOKYO INTL AIRPO, JP) observed 1000 UTC 25 January 2020
Temperature: 9.0°C (48°F)
Dewpoint: 3.0°C (37°F) [RH = 66%]
Pressure (altimeter): 30.35 inches Hg (1028.0 mb)
Winds: from the E (80 degrees) at 12 MPH (10 knots; 5.1 m/s)
Visibility: 6 or more miles (10+ km)
Ceiling: 5000 feet AGL
Clouds: few clouds at 2500 feet AGL
broken clouds at 5000 feet AGL
Weather: no significant weather observed at this time

METAR text: RJTT 250930Z 09010KT 9999 FEW020 SCT070 BKN140 09/02 Q1028 NOSIG RMK 1CU020 4AC070 7AC140 A3036
Conditions at: RJTT (TOKYO INTL AIRPO, JP) observed 0930 UTC 25 January 2020
Temperature: 9.0°C (48°F)
Dewpoint: 2.0°C (36°F) [RH = 61%]
Pressure (altimeter): 30.35 inches Hg (1028.0 mb)
Winds: from the E (90 degrees) at 12 MPH (10 knots; 5.1 m/s)
Visibility: 6 or more miles (10+ km)
Ceiling: 14000 feet AGL
Clouds: few clouds at 2000 feet AGL
scattered clouds at 7000 feet AGL
broken clouds at 14000 feet AGL
Weather: no significant weather observed at this time

METAR text: RJTT 250900Z 07008KT 9999 FEW020 BKN050 BKN140 09/02 Q1027 NOSIG RMK 1CU020 6SC050 7AC140 A3035
Conditions at: RJTT (TOKYO INTL AIRPO, JP) observed 0900 UTC 25 January 2020
Temperature: 9.0°C (48°F)
Dewpoint: 2.0°C (36°F) [RH = 61%]
Pressure (altimeter): 30.32 inches Hg (1027.0 mb)
Winds: from the ENE (70 degrees) at 9 MPH (8 knots; 4.1 m/s)
Visibility: 6 or more miles (10+ km)
Ceiling: 5000 feet AGL
Clouds: few clouds at 2000 feet AGL
broken clouds at 5000 feet AGL
broken clouds at 14000 feet AGL
Weather: no significant weather observed at this time

METAR text: RJTT 250830Z 05010KT 9999 FEW020 BKN050 10/02 Q1027 BECMG 09008KT RMK 1CU020 7SC050 A3034
Conditions at: RJTT (TOKYO INTL AIRPO, JP) observed 0830 UTC 25 January 2020
Temperature: 10.0°C (50°F)
Dewpoint: 2.0°C (36°F) [RH = 57%]
Pressure (altimeter): 30.32 inches Hg (1027.0 mb)
Winds: from the NE (50 degrees) at 12 MPH (10 knots; 5.1 m/s)
Visibility: 6 or more miles (10+ km)
Ceiling: 5000 feet AGL
Clouds: few clouds at 2000 feet AGL
broken clouds at 5000 feet AGL
Weather: no significant weather observed at this time

METAR text: RJTT 250800Z 07007KT 9999 FEW020 BKN050 BKN150 10/02 Q1027 NOSIG RMK 1CU020 5SC050 7AC150 A3034
Conditions at: RJTT (TOKYO INTL AIRPO, JP) observed 0800 UTC 25 January 2020
Temperature: 10.0°C (50°F)
Dewpoint: 2.0°C (36°F) [RH = 57%]
Pressure (altimeter): 30.32 inches Hg (1027.0 mb)
Winds: from the ENE (70 degrees) at 8 MPH (7 knots; 3.6 m/s)
Visibility: 6 or more miles (10+ km)
Ceiling: 5000 feet AGL
Clouds: few clouds at 2000 feet AGL
broken clouds at 5000 feet AGL
broken clouds at 15000 feet AGL
Weather: no significant weather observed at this time

METAR text: RJTT 250730Z 06006KT 9999 FEW020 BKN050 BKN150 10/01 Q1027 BECMG 09005KT RMK 1CU020 6SC050 7AC150 A3034
Conditions at: RJTT (TOKYO INTL AIRPO, JP) observed 0730 UTC 25 January 2020
Temperature: 10.0°C (50°F)
Dewpoint: 1.0°C (34°F) [RH = 53%]
Pressure (altimeter): 30.32 inches Hg (1027.0 mb)
Winds: from the ENE (60 degrees) at 7 MPH (6 knots; 3.1 m/s)
Visibility: 6 or more miles (10+ km)
Ceiling: 5000 feet AGL
Clouds: few clouds at 2000 feet AGL
broken clouds at 5000 feet AGL
broken clouds at 15000 feet AGL
Weather: no significant weather observed at this time

METAR text: RJTT 250700Z 05005KT 020V090 9999 FEW020 BKN150 10/01 Q1027 NOSIG RMK 1CU020 7AC150 A3034
Conditions at: RJTT (TOKYO INTL AIRPO, JP) observed 0700 UTC 25 January 2020
Temperature: 10.0°C (50°F)
Dewpoint: 1.0°C (34°F) [RH = 53%]
Pressure (altimeter): 30.32 inches Hg (1027.0 mb)
Winds: from the NE (50 degrees) at 6 MPH (5 knots; 2.6 m/s)
Visibility: 6 or more miles (10+ km)
Ceiling: 15000 feet AGL
Clouds: few clouds at 2000 feet AGL
broken clouds at 15000 feet AGL
Weather: no significant weather observed at this time

METAR text: RJTT 250630Z 05004KT 010V080 9999 FEW030 BKN150 10/01 Q1026 BECMG 09008KT RMK 1CU030 7AC150 A3032
Conditions at: RJTT (TOKYO INTL AIRPO, JP) observed 0630 UTC 25 January 2020
Temperature: 10.0°C (50°F)
Dewpoint: 1.0°C (34°F) [RH = 53%]
Pressure (altimeter): 30.30 inches Hg (1026.0 mb)
Winds: from the NE (50 degrees) at 5 MPH (4 knots; 2.1 m/s)
Visibility: 6 or more miles (10+ km)
Ceiling: 15000 feet AGL
Clouds: few clouds at 3000 feet AGL
broken clouds at 15000 feet AGL
Weather: no significant weather observed at this time

METAR text: RJTT 250600Z 06004KT 9999 FEW030 SCT070 BKN150 10/M00 Q1027 BECMG 09008KT RMK 1CU030 3AC070 6AC150 A3033
Conditions at: RJTT (TOKYO INTL AIRPO, JP) observed 0600 UTC 25 January 2020
Temperature: 10.0°C (50°F)
Dewpoint: 0.0°C (32°F) [RH = 50%]
Pressure (altimeter): 30.32 inches Hg (1027.0 mb)
Winds: from the ENE (60 degrees) at 5 MPH (4 knots; 2.1 m/s)
Visibility: 6 or more miles (10+ km)
Ceiling: 15000 feet AGL
Clouds: few clouds at 3000 feet AGL
scattered clouds at 7000 feet AGL
broken clouds at 15000 feet AGL
Weather: no significant weather observed at this time

METAR text: RJTT 250530Z 02004KT 350V050 9999 FEW030 SCT070 BKN150 09/M00 Q1026 NOSIG RMK 1CU030 4AC070 7AC150 A3032
Conditions at: RJTT (TOKYO INTL AIRPO, JP) observed 0530 UTC 25 January 2020
Temperature: 9.0°C (48°F)
Dewpoint: 0.0°C (32°F) [RH = 53%]
Pressure (altimeter): 30.30 inches Hg (1026.0 mb)
Winds: from the NNE (20 degrees) at 5 MPH (4 knots; 2.1 m/s)
Visibility: 6 or more miles (10+ km)
Ceiling: 15000 feet AGL
Clouds: few clouds at 3000 feet AGL
scattered clouds at 7000 feet AGL
broken clouds at 15000 feet AGL
Weather: no significant weather observed at this time

METAR text: RJTT 250500Z 03004KT 360V060 9999 FEW030 SCT070 BKN150 09/M02 Q1026 NOSIG RMK 1CU030 4AC070 7AC150 A3032
Conditions at: RJTT (TOKYO INTL AIRPO, JP) observed 0500 UTC 25 January 2020
Temperature: 9.0°C (48°F)
Dewpoint: -2.0°C (28°F) [RH = 46%]
Pressure (altimeter): 30.30 inches Hg (1026.0 mb)
Winds: from the NNE (30 degrees) at 5 MPH (4 knots; 2.1 m/s)
Visibility: 6 or more miles (10+ km)
Ceiling: 15000 feet AGL
Clouds: few clouds at 3000 feet AGL
scattered clouds at 7000 feet AGL
broken clouds at 15000 feet AGL
Weather: no significant weather observed at this time

METAR text: RJTT 250430Z 03006KT 9999 FEW030 SCT050 BKN070 09/M01 Q1026 NOSIG RMK 1CU030 4SC050 7AC070 A3032
Conditions at: RJTT (TOKYO INTL AIRPO, JP) observed 0430 UTC 25 January 2020
Temperature: 9.0°C (48°F)
Dewpoint: -1.0°C (30°F) [RH = 49%]
Pressure (altimeter): 30.30 inches Hg (1026.0 mb)
Winds: from the NNE (30 degrees) at 7 MPH (6 knots; 3.1 m/s)
Visibility: 6 or more miles (10+ km)
Ceiling: 7000 feet AGL
Clouds: few clouds at 3000 feet AGL
scattered clouds at 5000 feet AGL
broken clouds at 7000 feet AGL
Weather: no significant weather observed at this time

METAR text: RJTT 250400Z 05005KT 9999 FEW030 SCT050 BKN070 09/M01 Q1027 BECMG 09008KT RMK 1CU030 4SC050 7AC070 A3033
Conditions at: RJTT (TOKYO INTL AIRPO, JP) observed 0400 UTC 25 January 2020
Temperature: 9.0°C (48°F)
Dewpoint: -1.0°C (30°F) [RH = 49%]
Pressure (altimeter): 30.32 inches Hg (1027.0 mb)
Winds: from the NE (50 degrees) at 6 MPH (5 knots; 2.6 m/s)
Visibility: 6 or more miles (10+ km)
Ceiling: 7000 feet AGL
Clouds: few clouds at 3000 feet AGL
scattered clouds at 5000 feet AGL
broken clouds at 7000 feet AGL
Weather: no significant weather observed at this time

METAR text: RJTT 250330Z 03006KT 360V070 9999 FEW030 SCT050 BKN070 09/M03 Q1027 BECMG 09008KT RMK 1CU030 3SC050 7AC070 A3034
Conditions at: RJTT (TOKYO INTL AIRPO, JP) observed 0330 UTC 25 January 2020
Temperature: 9.0°C (48°F)
Dewpoint: -3.0°C (27°F) [RH = 43%]
Pressure (altimeter): 30.32 inches Hg (1027.0 mb)
Winds: from the NNE (30 degrees) at 7 MPH (6 knots; 3.1 m/s)
Visibility: 6 or more miles (10+ km)
Ceiling: 7000 feet AGL
Clouds: few clouds at 3000 feet AGL
scattered clouds at 5000 feet AGL
broken clouds at 7000 feet AGL
Weather: no significant weather observed at this time

METAR text: RJTT 250300Z 05005KT 020V090 9999 FEW030 BKN070 BKN/// 09/M02 Q1027 BECMG 09008KT RMK 1CU030 5AC070 A3034
Conditions at: RJTT (TOKYO INTL AIRPO, JP) observed 0300 UTC 25 January 2020
Temperature: 9.0°C (48°F)
Dewpoint: -2.0°C (28°F) [RH = 46%]
Pressure (altimeter): 30.32 inches Hg (1027.0 mb)
Winds: from the NE (50 degrees) at 6 MPH (5 knots; 2.6 m/s)
Visibility: 6 or more miles (10+ km)
Ceiling: 7000 feet AGL
Clouds: few clouds at 3000 feet AGL
broken clouds at 7000 feet AGL
Weather: no significant weather observed at this time

METAR text: RJTT 250230Z 36004KT 320V050 9999 FEW030 SCT050 BKN070 09/M05 Q1028 NOSIG RMK 1CU030 3SC050 6AC070 A3036
Conditions at: RJTT (TOKYO INTL AIRPO, JP) observed 0230 UTC 25 January 2020
Temperature: 9.0°C (48°F)
Dewpoint: -5.0°C (23°F) [RH = 37%]
Pressure (altimeter): 30.35 inches Hg (1028.0 mb)
Winds: from the N (360 degrees) at 5 MPH (4 knots; 2.1 m/s)
Visibility: 6 or more miles (10+ km)
Ceiling: 7000 feet AGL
Clouds: few clouds at 3000 feet AGL
scattered clouds at 5000 feet AGL
broken clouds at 7000 feet AGL
Weather: no significant weather observed at this time

METAR text: RJTT 250200Z 01006KT 9999 FEW030 SCT050 BKN070 10/M05 Q1028 NOSIG RMK 1CU030 3SC050 5AC070 A3038
Conditions at: RJTT (TOKYO INTL AIRPO, JP) observed 0200 UTC 25 January 2020
Temperature: 10.0°C (50°F)
Dewpoint: -5.0°C (23°F) [RH = 34%]
Pressure (altimeter): 30.35 inches Hg (1028.0 mb)
Winds: from the N (10 degrees) at 7 MPH (6 knots; 3.1 m/s)
Visibility: 6 or more miles (10+ km)
Ceiling: 7000 feet AGL
Clouds: few clouds at 3000 feet AGL
scattered clouds at 5000 feet AGL
broken clouds at 7000 feet AGL
Weather: no significant weather observed at this time

METAR text: RJTT 250130Z 01007KT 9999 FEW030 SCT050 BKN070 09/M03 Q1029 NOSIG RMK 1CU030 4SC050 6AC070 A3039
Conditions at: RJTT (TOKYO INTL AIRPO, JP) observed 0130 UTC 25 January 2020
Temperature: 9.0°C (48°F)
Dewpoint: -3.0°C (27°F) [RH = 43%]
Pressure (altimeter): 30.38 inches Hg (1029.0 mb)
Winds: from the N (10 degrees) at 8 MPH (7 knots; 3.6 m/s)
Visibility: 6 or more miles (10+ km)
Ceiling: 7000 feet AGL
Clouds: few clouds at 3000 feet AGL
scattered clouds at 5000 feet AGL
broken clouds at 7000 feet AGL
Weather: no significant weather observed at this time

METAR text: RJTT 250100Z 03009KT 9999 FEW030 BKN050 08/M01 Q1029 NOSIG RMK 1CU030 7SC050 A3039
Conditions at: RJTT (TOKYO INTL AIRPO, JP) observed 0100 UTC 25 January 2020
Temperature: 8.0°C (46°F)
Dewpoint: -1.0°C (30°F) [RH = 53%]
Pressure (altimeter): 30.38 inches Hg (1029.0 mb)
Winds: from the NNE (30 degrees) at 10 MPH (9 knots; 4.6 m/s)
Visibility: 6 or more miles (10+ km)
Ceiling: 5000 feet AGL
Clouds: few clouds at 3000 feet AGL
broken clouds at 5000 feet AGL
Weather: no significant weather observed at this time

METAR text: RJTT 250030Z 04008KT 9999 FEW030 BKN050 08/M00 Q1029 NOSIG RMK 1CU030 7SC050 A3039
Conditions at: RJTT (TOKYO INTL AIRPO, JP) observed 0030 UTC 25 January 2020
Temperature: 8.0°C (46°F)
Dewpoint: 0.0°C (32°F) [RH = 57%]
Pressure (altimeter): 30.38 inches Hg (1029.0 mb)
Winds: from the NE (40 degrees) at 9 MPH (8 knots; 4.1 m/s)
Visibility: 6 or more miles (10+ km)
Ceiling: 5000 feet AGL
Clouds: few clouds at 3000 feet AGL
broken clouds at 5000 feet AGL
Weather: no significant weather observed at this time

METAR text: RJTT 250000Z 02007KT 9999 FEW030 BKN050 08/M01 Q1028 NOSIG RMK 1CU030 7SC050 A3038
Conditions at: RJTT (TOKYO INTL AIRPO, JP) observed 0000 UTC 25 January 2020
Temperature: 8.0°C (46°F)
Dewpoint: -1.0°C (30°F) [RH = 53%]
Pressure (altimeter): 30.35 inches Hg (1028.0 mb)
Winds: from the NNE (20 degrees) at 8 MPH (7 knots; 3.6 m/s)
Visibility: 6 or more miles (10+ km)
Ceiling: 5000 feet AGL
Clouds: few clouds at 3000 feet AGL
broken clouds at 5000 feet AGL
Weather: no significant weather observed at this time

METAR text: RJTT 242330Z 05009KT 9999 FEW040 BKN050 07/M00 Q1028 NOSIG RMK 1SC040 7SC050 A3037
Conditions at: RJTT (TOKYO INTL AIRPO, JP) observed 2330 UTC 24 January 2020
Temperature: 7.0°C (45°F)
Dewpoint: 0.0°C (32°F) [RH = 61%]
Pressure (altimeter): 30.35 inches Hg (1028.0 mb)
Winds: from the NE (50 degrees) at 10 MPH (9 knots; 4.6 m/s)
Visibility: 6 or more miles (10+ km)
Ceiling: 5000 feet AGL
Clouds: few clouds at 4000 feet AGL
broken clouds at 5000 feet AGL
Weather: no significant weather observed at this time

METAR text: RJTT 242300Z 06008KT 9999 SCT050 BKN060 08/M02 Q1028 BECMG 03010KT RMK 4SC050 7SC060 A3036
Conditions at: RJTT (TOKYO INTL AIRPO, JP) observed 2300 UTC 24 January 2020
Temperature: 8.0°C (46°F)
Dewpoint: -2.0°C (28°F) [RH = 49%]
Pressure (altimeter): 30.35 inches Hg (1028.0 mb)
Winds: from the ENE (60 degrees) at 9 MPH (8 knots; 4.1 m/s)
Visibility: 6 or more miles (10+ km)
Ceiling: 6000 feet AGL
Clouds: scattered clouds at 5000 feet AGL
broken clouds at 6000 feet AGL
Weather: no significant weather observed at this time

METAR text: RJTT 242230Z 03010G21KT 350V060 9999 SCT050 BKN060 08/M04 Q1028 NOSIG RMK 4SC050 7SC060 A3036
Conditions at: RJTT (TOKYO INTL AIRPO, JP) observed 2230 UTC 24 January 2020
Temperature: 8.0°C (46°F)
Dewpoint: -4.0°C (25°F) [RH = 42%]
Pressure (altimeter): 30.35 inches Hg (1028.0 mb)
Winds: from the NNE (30 degrees) at 12 MPH (10 knots; 5.1 m/s)
gusting to 24 MPH (21 knots; 10.8 m/s)
Visibility: 6 or more miles (10+ km)
Ceiling: 6000 feet AGL
Clouds: scattered clouds at 5000 feet AGL
broken clouds at 6000 feet AGL
Weather: no significant weather observed at this time

METAR text: RJTT 242200Z 02010KT 9999 SCT050 BKN060 08/M02 Q1028 NOSIG RMK 4SC050 7SC060 A3036
Conditions at: RJTT (TOKYO INTL AIRPO, JP) observed 2200 UTC 24 January 2020
Temperature: 8.0°C (46°F)
Dewpoint: -2.0°C (28°F) [RH = 49%]
Pressure (altimeter): 30.35 inches Hg (1028.0 mb)
Winds: from the NNE (20 degrees) at 12 MPH (10 knots; 5.1 m/s)
Visibility: 6 or more miles (10+ km)
Ceiling: 6000 feet AGL
Clouds: scattered clouds at 5000 feet AGL
broken clouds at 6000 feet AGL
Weather: no significant weather observed at this time

METAR text: RJTT 242130Z 02012KT 9999 SCT050 BKN060 08/M03 Q1027 NOSIG RMK 4SC050 7SC060 A3034
Conditions at: RJTT (TOKYO INTL AIRPO, JP) observed 2130 UTC 24 January 2020
Temperature: 8.0°C (46°F)
Dewpoint: -3.0°C (27°F) [RH = 46%]
Pressure (altimeter): 30.32 inches Hg (1027.0 mb)
Winds: from the NNE (20 degrees) at 14 MPH (12 knots; 6.2 m/s)
Visibility: 6 or more miles (10+ km)
Ceiling: 6000 feet AGL
Clouds: scattered clouds at 5000 feet AGL
broken clouds at 6000 feet AGL
Weather: no significant weather observed at this time

METAR text: RJTT 242100Z 36017KT 9999 FEW040 BKN050 08/M02 Q1026 NOSIG RMK 1SC040 7SC050 A3032
Conditions at: RJTT (TOKYO INTL AIRPO, JP) observed 2100 UTC 24 January 2020
Temperature: 8.0°C (46°F)
Dewpoint: -2.0°C (28°F) [RH = 49%]
Pressure (altimeter): 30.30 inches Hg (1026.0 mb)
Winds: from the N (360 degrees) at 20 MPH (17 knots; 8.7 m/s)
Visibility: 6 or more miles (10+ km)
Ceiling: 5000 feet AGL
Clouds: few clouds at 4000 feet AGL
broken clouds at 5000 feet AGL
Weather: no significant weather observed at this time

METAR text: RJTT 242030Z 01018KT 9999 FEW040 BKN050 08/M01 Q1026 NOSIG RMK 1SC040 7SC050 A3031
Conditions at: RJTT (TOKYO INTL AIRPO, JP) observed 2030 UTC 24 January 2020
Temperature: 8.0°C (46°F)
Dewpoint: -1.0°C (30°F) [RH = 53%]
Pressure (altimeter): 30.30 inches Hg (1026.0 mb)
Winds: from the N (10 degrees) at 21 MPH (18 knots; 9.3 m/s)
Visibility: 6 or more miles (10+ km)
Ceiling: 5000 feet AGL
Clouds: few clouds at 4000 feet AGL
broken clouds at 5000 feet AGL
Weather: no significant weather observed at this time

METAR text: RJTT 242000Z 01014KT 9999 FEW040 BKN050 08/M03 Q1026 NOSIG RMK 1SC040 7SC050 A3030
Conditions at: RJTT (TOKYO INTL AIRPO, JP) observed 2000 UTC 24 January 2020
Temperature: 8.0°C (46°F)
Dewpoint: -3.0°C (27°F) [RH = 46%]
Pressure (altimeter): 30.30 inches Hg (1026.0 mb)
Winds: from the N (10 degrees) at 16 MPH (14 knots; 7.2 m/s)
Visibility: 6 or more miles (10+ km)
Ceiling: 5000 feet AGL
Clouds: few clouds at 4000 feet AGL
broken clouds at 5000 feet AGL
Weather: no significant weather observed at this time

METAR text: RJTT 241930Z 36017KT 9999 FEW050 BKN060 BKN/// 08/M03 Q1025 NOSIG RMK 1SC050 5SC060 A3028
Conditions at: RJTT (TOKYO INTL AIRPO, JP) observed 1930 UTC 24 January 2020
Temperature: 8.0°C (46°F)
Dewpoint: -3.0°C (27°F) [RH = 46%]
Pressure (altimeter): 30.27 inches Hg (1025.0 mb)
Winds: from the N (360 degrees) at 20 MPH (17 knots; 8.7 m/s)
Visibility: 6 or more miles (10+ km)
Ceiling: 6000 feet AGL
Clouds: few clouds at 5000 feet AGL
broken clouds at 6000 feet AGL
Weather: no significant weather observed at this time

METAR text: RJTT 241900Z 36016KT 9999 FEW050 SCT060 BKN/// 08/M01 Q1025 NOSIG RMK 1SC050 4SC060 A3028
Conditions at: RJTT (TOKYO INTL AIRPO, JP) observed 1900 UTC 24 January 2020
Temperature: 8.0°C (46°F)
Dewpoint: -1.0°C (30°F) [RH = 53%]
Pressure (altimeter): 30.27 inches Hg (1025.0 mb)
Winds: from the N (360 degrees) at 18 MPH (16 knots; 8.2 m/s)
Visibility: 6 or more miles (10+ km)
Ceiling: at least 12,000 feet AGL
Clouds: few clouds at 5000 feet AGL
scattered clouds at 6000 feet AGL
Weather: no significant weather observed at this time

METAR text: RJTT 241830Z 01016KT 9999 FEW060 BKN/// 08/M01 Q1025 NOSIG RMK 1SC060 A3028
Conditions at: RJTT (TOKYO INTL AIRPO, JP) observed 1830 UTC 24 January 2020
Temperature: 8.0°C (46°F)
Dewpoint: -1.0°C (30°F) [RH = 53%]
Pressure (altimeter): 30.27 inches Hg (1025.0 mb)
Winds: from the N (10 degrees) at 18 MPH (16 knots; 8.2 m/s)
Visibility: 6 or more miles (10+ km)
Ceiling: at least 12,000 feet AGL
Clouds: few clouds at 6000 feet AGL
Weather: no significant weather observed at this time

METAR text: RJTT 241800Z 36014KT 9999 FEW030 SCT/// 08/M01 Q1024 NOSIG RMK 1CU030 A3026
Conditions at: RJTT (TOKYO INTL AIRPO, JP) observed 1800 UTC 24 January 2020
Temperature: 8.0°C (46°F)
Dewpoint: -1.0°C (30°F) [RH = 53%]
Pressure (altimeter): 30.24 inches Hg (1024.0 mb)
Winds: from the N (360 degrees) at 16 MPH (14 knots; 7.2 m/s)
Visibility: 6 or more miles (10+ km)
Ceiling: at least 12,000 feet AGL
Clouds: few clouds at 3000 feet AGL
Weather: no significant weather observed at this time

METAR text: RJTT 241730Z 35019KT CAVOK 08/M01 Q1024 NOSIG RMK A3026
Conditions at: RJTT (TOKYO INTL AIRPO, JP) observed 1730 UTC 24 January 2020
Temperature: 8.0°C (46°F)
Dewpoint: -1.0°C (30°F) [RH = 53%]
Pressure (altimeter): 30.24 inches Hg (1024.0 mb)
Winds: from the N (350 degrees) at 22 MPH (19 knots; 9.8 m/s)
Visibility: 6 or more miles (10+ km)
Ceiling: ceiling and visibility are OK
Clouds: unknown
Weather: no significant weather observed at this time

METAR text: RJTT 241700Z 35019KT CAVOK 09/M00 Q1024 NOSIG RMK A3026
Conditions at: RJTT (TOKYO INTL AIRPO, JP) observed 1700 UTC 24 January 2020
Temperature: 9.0°C (48°F)
Dewpoint: 0.0°C (32°F) [RH = 53%]
Pressure (altimeter): 30.24 inches Hg (1024.0 mb)
Winds: from the N (350 degrees) at 22 MPH (19 knots; 9.8 m/s)
Visibility: 6 or more miles (10+ km)
Ceiling: ceiling and visibility are OK
Clouds: unknown
Weather: no significant weather observed at this time

METAR text: RJTT 241630Z 35019KT CAVOK 09/00 Q1024 NOSIG RMK A3026
Conditions at: RJTT (TOKYO INTL AIRPO, JP) observed 1630 UTC 24 January 2020
Temperature: 9.0°C (48°F)
Dewpoint: 0.0°C (32°F) [RH = 53%]
Pressure (altimeter): 30.24 inches Hg (1024.0 mb)
Winds: from the N (350 degrees) at 22 MPH (19 knots; 9.8 m/s)
Visibility: 6 or more miles (10+ km)
Ceiling: ceiling and visibility are OK
Clouds: unknown
Weather: no significant weather observed at this time

METAR text: RJTT 241600Z 35018KT CAVOK 09/M00 Q1024 TEMPO 35022G32KT RMK A3026
Conditions at: RJTT (TOKYO INTL AIRPO, JP) observed 1600 UTC 24 January 2020
Temperature: 9.0°C (48°F)
Dewpoint: 0.0°C (32°F) [RH = 53%]
Pressure (altimeter): 30.24 inches Hg (1024.0 mb)
Winds: from the N (350 degrees) at 21 MPH (18 knots; 9.3 m/s)
Visibility: 6 or more miles (10+ km)
Ceiling: ceiling and visibility are OK
Clouds: unknown
Weather: no significant weather observed at this time

METAR text: RJTT 241530Z 35019KT CAVOK 09/M01 Q1024 TEMPO 35022G32KT RMK A3026
Conditions at: RJTT (TOKYO INTL AIRPO, JP) observed 1530 UTC 24 January 2020
Temperature: 9.0°C (48°F)
Dewpoint: -1.0°C (30°F) [RH = 49%]
Pressure (altimeter): 30.24 inches Hg (1024.0 mb)
Winds: from the N (350 degrees) at 22 MPH (19 knots; 9.8 m/s)
Visibility: 6 or more miles (10+ km)
Ceiling: ceiling and visibility are OK
Clouds: unknown
Weather: no significant weather observed at this time

METAR text: RJTT 241500Z 35020KT CAVOK 10/M01 Q1024 TEMPO 35022G32KT RMK A3026
Conditions at: RJTT (TOKYO INTL AIRPO, JP) observed 1500 UTC 24 January 2020
Temperature: 10.0°C (50°F)
Dewpoint: -1.0°C (30°F) [RH = 46%]
Pressure (altimeter): 30.24 inches Hg (1024.0 mb)
Winds: from the N (350 degrees) at 23 MPH (20 knots; 10.3 m/s)
Visibility: 6 or more miles (10+ km)
Ceiling: ceiling and visibility are OK
Clouds: unknown
Weather: no significant weather observed at this time

METAR text: RJTT 241440Z 35021G33KT CAVOK 10/M00 Q1024 RMK A3025
Conditions at: RJTT (TOKYO INTL AIRPO, JP) observed 1440 UTC 24 January 2020
Temperature: 10.0°C (50°F)
Dewpoint: 0.0°C (32°F) [RH = 50%]
Pressure (altimeter): 30.24 inches Hg (1024.0 mb)
Winds: from the N (350 degrees) at 24 MPH (21 knots; 10.8 m/s)
gusting to 38 MPH (33 knots; 17.0 m/s)
Visibility: 6 or more miles (10+ km)
Ceiling: ceiling and visibility are OK
Clouds: unknown
Weather: no significant weather observed at this time

METAR text: RJTT 241430Z 35023KT CAVOK 10/M00 Q1024 NOSIG RMK A3025
Conditions at: RJTT (TOKYO INTL AIRPO, JP) observed 1430 UTC 24 January 2020
Temperature: 10.0°C (50°F)
Dewpoint: 0.0°C (32°F) [RH = 50%]
Pressure (altimeter): 30.24 inches Hg (1024.0 mb)
Winds: from the N (350 degrees) at 26 MPH (23 knots; 11.8 m/s)
Visibility: 6 or more miles (10+ km)
Ceiling: ceiling and visibility are OK
Clouds: unknown
Weather: no significant weather observed at this time

METAR text: RJTT 241400Z 35022KT CAVOK 10/00 Q1024 NOSIG RMK A3025
Conditions at: RJTT (TOKYO INTL AIRPO, JP) observed 1400 UTC 24 January 2020
Temperature: 10.0°C (50°F)
Dewpoint: 0.0°C (32°F) [RH = 50%]
Pressure (altimeter): 30.24 inches Hg (1024.0 mb)
Winds: from the N (350 degrees) at 25 MPH (22 knots; 11.3 m/s)
Visibility: 6 or more miles (10+ km)
Ceiling: ceiling and visibility are OK
Clouds: unknown
Weather: no significant weather observed at this time

METAR text: RJTT 241330Z 34021KT CAVOK 11/00 Q1024 TEMPO 35022G32KT RMK A3024
Conditions at: RJTT (TOKYO INTL AIRPO, JP) observed 1330 UTC 24 January 2020
Temperature: 11.0°C (52°F)
Dewpoint: 0.0°C (32°F) [RH = 47%]
Pressure (altimeter): 30.24 inches Hg (1024.0 mb)
Winds: from the NNW (340 degrees) at 24 MPH (21 knots; 10.8 m/s)
Visibility: 6 or more miles (10+ km)
Ceiling: ceiling and visibility are OK
Clouds: unknown
Weather: no significant weather observed at this time

METAR text: RJTT 241300Z 34019KT CAVOK 11/00 Q1024 TEMPO 35022G32KT RMK A3024
Conditions at: RJTT (TOKYO INTL AIRPO, JP) observed 1300 UTC 24 January 2020
Temperature: 11.0°C (52°F)
Dewpoint: 0.0°C (32°F) [RH = 47%]
Pressure (altimeter): 30.24 inches Hg (1024.0 mb)
Winds: from the NNW (340 degrees) at 22 MPH (19 knots; 9.8 m/s)
Visibility: 6 or more miles (10+ km)
Ceiling: ceiling and visibility are OK
Clouds: unknown
Weather: no significant weather observed at this time

METAR text: RJTT 241230Z 34019KT CAVOK 11/01 Q1024 TEMPO 35022G32KT
Conditions at: RJTT (TOKYO INTL AIRPO, JP) observed 1230 UTC 24 January 2020
Temperature: 11.0°C (52°F)
Dewpoint: 1.0°C (34°F) [RH = 50%]
Pressure (altimeter): 30.24 inches Hg (1024.0 mb)
Winds: from the NNW (340 degrees) at 22 MPH (19 knots; 9.8 m/s)
Visibility: 6 or more miles (10+ km)
Ceiling: ceiling and visibility are OK
Clouds: unknown
Weather: no significant weather observed at this time

METAR text: RJTT 241200Z 33014KT 9999 FEW015 BKN070 12/01 Q1024 TEMPO 34022G32KT RMK 1CU015 6AC070 A3024
Conditions at: RJTT (TOKYO INTL AIRPO, JP) observed 1200 UTC 24 January 2020
Temperature: 12.0°C (54°F)
Dewpoint: 1.0°C (34°F) [RH = 47%]
Pressure (altimeter): 30.24 inches Hg (1024.0 mb)
Winds: from the NNW (330 degrees) at 16 MPH (14 knots; 7.2 m/s)
Visibility: 6 or more miles (10+ km)
Ceiling: 7000 feet AGL
Clouds: few clouds at 1500 feet AGL
broken clouds at 7000 feet AGL
Weather: no significant weather observed at this time

METAR text: RJTT 241130Z 34011KT 9999 FEW015 BKN070 BKN180 11/03 Q1023 TEMPO 34022G32KT RMK 1CU015 6AC070 7AC180 A3023
Conditions at: RJTT (TOKYO INTL AIRPO, JP) observed 1130 UTC 24 January 2020
Temperature: 11.0°C (52°F)
Dewpoint: 3.0°C (37°F) [RH = 58%]
Pressure (altimeter): 30.21 inches Hg (1023.0 mb)
Winds: from the NNW (340 degrees) at 13 MPH (11 knots; 5.7 m/s)
Visibility: 6 or more miles (10+ km)
Ceiling: 7000 feet AGL
Clouds: few clouds at 1500 feet AGL
broken clouds at 7000 feet AGL
broken clouds at 18000 feet AGL
Weather: no significant weather observed at this time

METAR text: RJTT 241100Z 31009KT 9999 FEW015 BKN070 BKN180 12/07 Q1023 BECMG 34020KT TEMPO 34022G32KT RMK 1CU015 5AC070 7AC180 A3022
Conditions at: RJTT (TOKYO INTL AIRPO, JP) observed 1100 UTC 24 January 2020
Temperature: 12.0°C (54°F)
Dewpoint: 7.0°C (45°F) [RH = 71%]
Pressure (altimeter): 30.21 inches Hg (1023.0 mb)
Winds: from the NW (310 degrees) at 10 MPH (9 knots; 4.6 m/s)
Visibility: 6 or more miles (10+ km)
Ceiling: 7000 feet AGL
Clouds: few clouds at 1500 feet AGL
broken clouds at 7000 feet AGL
broken clouds at 18000 feet AGL
Weather: no significant weather observed at this time

METAR text: RJTT 241030Z 34005KT 9999 FEW015 BKN040 BKN070 12/09 Q1023 BECMG 34020KT TEMPO 34022G32KT RMK 1CU015 5SC040 7AC070 A3021
Conditions at: RJTT (TOKYO INTL AIRPO, JP) observed 1030 UTC 24 January 2020
Temperature: 12.0°C (54°F)
Dewpoint: 9.0°C (48°F) [RH = 82%]
Pressure (altimeter): 30.21 inches Hg (1023.0 mb)
Winds: from the NNW (340 degrees) at 6 MPH (5 knots; 2.6 m/s)
Visibility: 6 or more miles (10+ km)
Ceiling: 4000 feet AGL
Clouds: few clouds at 1500 feet AGL
broken clouds at 4000 feet AGL
broken clouds at 7000 feet AGL
Weather: no significant weather observed at this time

METAR text: RJTT 241000Z 36002KT 9999 FEW015 BKN060 12/09 Q1022 BECMG 35016KT RMK 1CU015 7SC060 A3019
Conditions at: RJTT (TOKYO INTL AIRPO, JP) observed 1000 UTC 24 January 2020
Temperature: 12.0°C (54°F)
Dewpoint: 9.0°C (48°F) [RH = 82%]
Pressure (altimeter): 30.18 inches Hg (1022.0 mb)
Winds: from the N (360 degrees) at 2 MPH (2 knots; 1.0 m/s)
Visibility: 6 or more miles (10+ km)
Ceiling: 6000 feet AGL
Clouds: few clouds at 1500 feet AGL
broken clouds at 6000 feet AGL
Weather: no significant weather observed at this time

METAR text: RJTT 240930Z 02002KT 9999 FEW015 BKN070 12/10 Q1022 BECMG 35016KT RMK 1CU015 6AC070 A3018
Conditions at: RJTT (TOKYO INTL AIRPO, JP) observed 0930 UTC 24 January 2020
Temperature: 12.0°C (54°F)
Dewpoint: 10.0°C (50°F) [RH = 88%]
Pressure (altimeter): 30.18 inches Hg (1022.0 mb)
Winds: from the NNE (20 degrees) at 2 MPH (2 knots; 1.0 m/s)
Visibility: 6 or more miles (10+ km)
Ceiling: 7000 feet AGL
Clouds: few clouds at 1500 feet AGL
broken clouds at 7000 feet AGL
Weather: no significant weather observed at this time

METAR text: RJTT 240900Z 36003KT 9999 FEW015 SCT180 12/09 Q1022 BECMG 35016KT RMK 1CU015 3AC180 A3018
Conditions at: RJTT (TOKYO INTL AIRPO, JP) observed 0900 UTC 24 January 2020
Temperature: 12.0°C (54°F)
Dewpoint: 9.0°C (48°F) [RH = 82%]
Pressure (altimeter): 30.18 inches Hg (1022.0 mb)
Winds: from the N (360 degrees) at 3 MPH (3 knots; 1.5 m/s)
Visibility: 6 or more miles (10+ km)
Ceiling: at least 12,000 feet AGL
Clouds: few clouds at 1500 feet AGL
scattered clouds at 18000 feet AGL
Weather: no significant weather observed at this time

METAR text: RJTT 240830Z 35003KT 9999 FEW015 SCT180 12/09 Q1021 BECMG 35016KT
Conditions at: RJTT (TOKYO INTL AIRPO, JP) observed 0830 UTC 24 January 2020
Temperature: 12.0°C (54°F)
Dewpoint: 9.0°C (48°F) [RH = 82%]
Pressure (altimeter): 30.15 inches Hg (1021.0 mb)
Winds: from the N (350 degrees) at 3 MPH (3 knots; 1.5 m/s)
Visibility: 6 or more miles (10+ km)
Ceiling: at least 12,000 feet AGL
Clouds: few clouds at 1500 feet AGL
scattered clouds at 18000 feet AGL
Weather: no significant weather observed at this time

METAR text: RJTT 240800Z 36004KT 9999 FEW015 12/09 Q1021 NOSIG RMK 1CU015 A3016
Conditions at: RJTT (TOKYO INTL AIRPO, JP) observed 0800 UTC 24 January 2020
Temperature: 12.0°C (54°F)
Dewpoint: 9.0°C (48°F) [RH = 82%]
Pressure (altimeter): 30.15 inches Hg (1021.0 mb)
Winds: from the N (360 degrees) at 5 MPH (4 knots; 2.1 m/s)
Visibility: 6 or more miles (10+ km)
Ceiling: at least 12,000 feet AGL
Clouds: few clouds at 1500 feet AGL
Weather: no significant weather observed at this time

METAR text: RJTT 240730Z 02004KT 9999 FEW015 12/09 Q1021 NOSIG RMK 1CU015 A3015
Conditions at: RJTT (TOKYO INTL AIRPO, JP) observed 0730 UTC 24 January 2020
Temperature: 12.0°C (54°F)
Dewpoint: 9.0°C (48°F) [RH = 82%]
Pressure (altimeter): 30.15 inches Hg (1021.0 mb)
Winds: from the NNE (20 degrees) at 5 MPH (4 knots; 2.1 m/s)
Visibility: 6 or more miles (10+ km)
Ceiling: at least 12,000 feet AGL
Clouds: few clouds at 1500 feet AGL
Weather: no significant weather observed at this time

METAR text: RJTT 240700Z 04001KT 9999 FEW015 SCT170 13/08 Q1021 NOSIG RMK 1CU015 4AC170 A3016
Conditions at: RJTT (TOKYO INTL AIRPO, JP) observed 0700 UTC 24 January 2020
Temperature: 13.0°C (55°F)
Dewpoint: 8.0°C (46°F) [RH = 72%]
Pressure (altimeter): 30.15 inches Hg (1021.0 mb)
Winds: from the NE (40 degrees) at 1 MPH (1 knots; 0.5 m/s)
Visibility: 6 or more miles (10+ km)
Ceiling: at least 12,000 feet AGL
Clouds: few clouds at 1500 feet AGL
scattered clouds at 17000 feet AGL
Weather: no significant weather observed at this time

METAR text: RJTT 240630Z 02003KT 9999 FEW015 SCT050 BKN170 13/08 Q1020 NOSIG RMK 1CU015 4SC050 5AC170 A3014
Conditions at: RJTT (TOKYO INTL AIRPO, JP) observed 0630 UTC 24 January 2020
Temperature: 13.0°C (55°F)
Dewpoint: 8.0°C (46°F) [RH = 72%]
Pressure (altimeter): 30.12 inches Hg (1020.0 mb)
Winds: from the NNE (20 degrees) at 3 MPH (3 knots; 1.5 m/s)
Visibility: 6 or more miles (10+ km)
Ceiling: 17000 feet AGL
Clouds: few clouds at 1500 feet AGL
scattered clouds at 5000 feet AGL
broken clouds at 17000 feet AGL
Weather: no significant weather observed at this time

METAR text: RJTT 240600Z 06002KT 9999 FEW015 SCT050 BKN170 13/08 Q1020 BECMG 05005KT RMK 1CU015 4SC050 7AC170 A3013
Conditions at: RJTT (TOKYO INTL AIRPO, JP) observed 0600 UTC 24 January 2020
Temperature: 13.0°C (55°F)
Dewpoint: 8.0°C (46°F) [RH = 72%]
Pressure (altimeter): 30.12 inches Hg (1020.0 mb)
Winds: from the ENE (60 degrees) at 2 MPH (2 knots; 1.0 m/s)
Visibility: 6 or more miles (10+ km)
Ceiling: 17000 feet AGL
Clouds: few clouds at 1500 feet AGL
scattered clouds at 5000 feet AGL
broken clouds at 17000 feet AGL
Weather: no significant weather observed at this time

METAR text: RJTT 240530Z VRB02KT 9999 FEW015 SCT035 BKN050 12/08 Q1020 BECMG 05005KT
Conditions at: RJTT (TOKYO INTL AIRPO, JP) observed 0530 UTC 24 January 2020
Temperature: 12.0°C (54°F)
Dewpoint: 8.0°C (46°F) [RH = 76%]
Pressure (altimeter): 30.12 inches Hg (1020.0 mb)
Winds: variable direction winds at 2 MPH (2 knots; 1.0 m/s)
Visibility: 6 or more miles (10+ km)
Ceiling: 5000 feet AGL
Clouds: few clouds at 1500 feet AGL
scattered clouds at 3500 feet AGL
broken clouds at 5000 feet AGL
Weather: no significant weather observed at this time

METAR text: RJTT 240500Z VRB02KT 9999 FEW015 SCT040 BKN050 13/08 Q1020 NOSIG RMK 1CU015 3SC040 7SC050 A3013
Conditions at: RJTT (TOKYO INTL AIRPO, JP) observed 0500 UTC 24 January 2020
Temperature: 13.0°C (55°F)
Dewpoint: 8.0°C (46°F) [RH = 72%]
Pressure (altimeter): 30.12 inches Hg (1020.0 mb)
Winds: variable direction winds at 2 MPH (2 knots; 1.0 m/s)
Visibility: 6 or more miles (10+ km)
Ceiling: 5000 feet AGL
Clouds: few clouds at 1500 feet AGL
scattered clouds at 4000 feet AGL
broken clouds at 5000 feet AGL
Weather: no significant weather observed at this time

METAR text: RJTT 240430Z VRB02KT 9999 FEW015 BKN033 12/08 Q1020 NOSIG RMK 1CU015 7SC033 A3014
Conditions at: RJTT (TOKYO INTL AIRPO, JP) observed 0430 UTC 24 January 2020
Temperature: 12.0°C (54°F)
Dewpoint: 8.0°C (46°F) [RH = 76%]
Pressure (altimeter): 30.12 inches Hg (1020.0 mb)
Winds: variable direction winds at 2 MPH (2 knots; 1.0 m/s)
Visibility: 6 or more miles (10+ km)
Ceiling: 3300 feet AGL
Clouds: few clouds at 1500 feet AGL
broken clouds at 3300 feet AGL
Weather: no significant weather observed at this time

METAR text: RJTT 240400Z 03002KT 9999 FEW015 BKN033 12/08 Q1021 NOSIG RMK 1CU015 7SC033 A3015
Conditions at: RJTT (TOKYO INTL AIRPO, JP) observed 0400 UTC 24 January 2020
Temperature: 12.0°C (54°F)
Dewpoint: 8.0°C (46°F) [RH = 76%]
Pressure (altimeter): 30.15 inches Hg (1021.0 mb)
Winds: from the NNE (30 degrees) at 2 MPH (2 knots; 1.0 m/s)
Visibility: 6 or more miles (10+ km)
Ceiling: 3300 feet AGL
Clouds: few clouds at 1500 feet AGL
broken clouds at 3300 feet AGL
Weather: no significant weather observed at this time

METAR text: RJTT 240330Z 03003KT 9999 FEW015 BKN030 BKN050 12/08 Q1021 NOSIG RMK 1CU015 5SC030 7SC050 A3015
Conditions at: RJTT (TOKYO INTL AIRPO, JP) observed 0330 UTC 24 January 2020
Temperature: 12.0°C (54°F)
Dewpoint: 8.0°C (46°F) [RH = 76%]
Pressure (altimeter): 30.15 inches Hg (1021.0 mb)
Winds: from the NNE (30 degrees) at 3 MPH (3 knots; 1.5 m/s)
Visibility: 6 or more miles (10+ km)
Ceiling: 3000 feet AGL
Clouds: few clouds at 1500 feet AGL
broken clouds at 3000 feet AGL
broken clouds at 5000 feet AGL
Weather: no significant weather observed at this time

METAR text: RJTT 240300Z 02003KT 9999 FEW015 BKN045 11/07 Q1021 NOSIG RMK 1CU015 7SC045 A3016
Conditions at: RJTT (TOKYO INTL AIRPO, JP) observed 0300 UTC 24 January 2020
Temperature: 11.0°C (52°F)
Dewpoint: 7.0°C (45°F) [RH = 76%]
Pressure (altimeter): 30.15 inches Hg (1021.0 mb)
Winds: from the NNE (20 degrees) at 3 MPH (3 knots; 1.5 m/s)
Visibility: 6 or more miles (10+ km)
Ceiling: 4500 feet AGL
Clouds: few clouds at 1500 feet AGL
broken clouds at 4500 feet AGL
Weather: no significant weather observed at this time

Forecast for: RJTT (TOKYO INTL AIRPO, JP)
Text: TAF RJTT 251105Z 2512/2618 08010KT 9999 FEW020 BKN050
Forecast period: 1200 to 1300 UTC 25 January 2020
Forecast type: FROM: standard forecast or significant change
Winds: from the E (80 degrees) at 12 MPH (10 knots; 5.1 m/s)
Visibility: 6 or more miles 10+ km)
Ceiling: 5000 feet AGL
Clouds: few clouds at 2000 feet AGL
broken clouds at 5000 feet AGL
Weather: no significant weather forecast for this period
Text: BECMG 2513/2515 02010KT
Forecast period: 1300 UTC 25 January 2020 to 0600 UTC 26 January 2020
Forecast type: BECOMING: Conditions expected to become as follows by 1500 UTC 25 January 2020
Winds: from the NNE (20 degrees) at 12 MPH (10 knots; 5.1 m/s)
Visibility: 6 or more miles 10+ km)
Ceiling: 5000 feet AGL
Clouds: few clouds at 2000 feet AGL
broken clouds at 5000 feet AGL
Weather: no significant weather forecast for this period
Text: BECMG 2606/2609 09010KT
Forecast period: 0600 to 1200 UTC 26 January 2020
Forecast type: BECOMING: Conditions expected to become as follows by 0900 UTC 26 January 2020
Winds: from the E (90 degrees) at 12 MPH (10 knots; 5.1 m/s)
Visibility: 6 or more miles 10+ km)
Ceiling: 5000 feet AGL
Clouds: few clouds at 2000 feet AGL
broken clouds at 5000 feet AGL
Weather: no significant weather forecast for this period
Text: BECMG 2612/2615 04010KT
Forecast period: 1200 to 1800 UTC 26 January 2020
Forecast type: BECOMING: Conditions expected to become as follows by 1500 UTC 26 January 2020
Winds: from the NE (40 degrees) at 12 MPH (10 knots; 5.1 m/s)
Visibility: 6 or more miles 10+ km)
Ceiling: 5000 feet AGL
Clouds: few clouds at 2000 feet AGL
broken clouds at 5000 feet AGL
Weather: no significant weather forecast for this period